Time;durP1;ratioP1;P1;durP2;ratioP2;P2;SDS_P1;SDS_P2;PMS_P1;PMS_P2;Temp;Humidity;BMP_temperature;BMP_pressure;BME280_temperature;BME280_humidity;BME280_pressure;Samples;Min_cycle;Max_cycle;Signal;HPM_P1;HPM_P2
2023/01/13 00:01:19;;;;;;;;;1.75;1.00;;;;;5.54;82.61;98264.09;4964067;28;101990;-71
2023/01/13 00:03:46;;;;;;;;;1.00;1.00;;;;;5.52;82.38;98256.22;4967478;28;104019;-71
2023/01/13 00:06:20;;;;;;;;;2.00;2.00;;;;;5.49;82.95;98253.91;4957966;28;101911;-70
2023/01/13 00:08:49;;;;;;;;;3.50;2.75;;;;;5.49;83.13;98255.72;4968202;28;102027;-72
2023/01/13 00:11:18;;;;;;;;;3.00;3.00;;;;;5.35;83.24;98231.34;4967587;28;103973;-71
2023/01/13 00:13:46;;;;;;;;;2.00;2.00;;;;;5.26;83.09;98216.34;4942292;28;103659;-70
2023/01/13 00:16:16;;;;;;;;;3.00;2.25;;;;;5.44;82.93;98242.88;4950119;28;104731;-70
2023/01/13 00:18:44;;;;;;;;;3.25;3.00;;;;;5.41;83.10;98232.47;4967837;28;102325;-70
2023/01/13 00:21:20;;;;;;;;;4.50;3.25;;;;;5.40;82.74;98237.00;4962789;28;102549;-70
2023/01/13 00:23:47;;;;;;;;;6.00;3.75;;;;;5.37;82.76;98236.53;4951681;28;104023;-72
2023/01/13 00:26:20;;;;;;;;;3.50;2.75;;;;;5.37;83.12;98240.03;4965843;28;104669;-70
2023/01/13 00:28:48;;;;;;;;;7.50;5.50;;;;;5.34;82.98;98235.03;4959643;28;102328;-69
2023/01/13 00:31:18;;;;;;;;;3.00;3.00;;;;;5.34;83.21;98240.41;4958139;28;102175;-69
2023/01/13 00:33:47;;;;;;;;;2.00;2.00;;;;;5.32;83.48;98231.69;4959289;28;103685;-69
2023/01/13 00:36:16;;;;;;;;;4.25;4.25;;;;;5.30;83.60;98247.13;4960752;28;102651;-69
2023/01/13 00:38:43;;;;;;;;;2.75;2.75;;;;;5.29;83.97;98239.25;4943662;28;103401;-70
2023/01/13 00:41:15;;;;;;;;;5.00;3.00;;;;;5.28;83.65;98245.63;4956538;28;102548;-70
2023/01/13 00:43:43;;;;;;;;;6.50;4.00;;;;;5.24;83.94;98239.78;4952662;27;104047;-70
2023/01/13 00:46:13;;;;;;;;;5.50;3.25;;;;;5.23;84.13;98250.66;4958185;28;102620;-69
2023/01/13 00:48:41;;;;;;;;;1.00;1.00;;;;;5.23;84.19;98251.50;4964636;28;102241;-70
2023/01/13 00:51:13;;;;;;;;;3.00;3.00;;;;;5.05;83.88;98212.59;4969449;28;102380;-70
2023/01/13 00:53:44;;;;;;;;;4.50;3.00;;;;;5.23;84.18;98243.47;4957825;28;103849;-70
2023/01/13 00:56:19;;;;;;;;;3.00;2.50;;;;;5.25;83.86;98240.63;4969336;27;102448;-70
2023/01/13 00:59:04;;;;;;;;;5.00;3.00;;;;;5.23;84.16;98235.44;4962151;28;102411;-70
2023/01/13 01:01:31;;;;;;;;;4.00;3.00;;;;;5.21;84.12;98228.59;4960819;28;102351;-70
2023/01/13 01:03:59;;;;;;;;;4.50;3.00;;;;;5.26;84.27;98232.41;4956799;28;103738;-70
2023/01/13 01:06:26;;;;;;;;;3.50;2.75;;;;;5.25;84.23;98228.06;4961280;28;104292;-70
2023/01/13 01:08:55;;;;;;;;;3.50;3.00;;;;;5.11;84.44;98202.00;4969088;28;102107;-71
2023/01/13 01:11:28;;;;;;;;;2.00;2.00;;;;;5.21;84.32;98229.44;4967105;28;102061;-70
2023/01/13 01:13:57;;;;;;;;;2.75;2.50;;;;;5.22;84.45;98222.22;4968144;28;103765;-70
2023/01/13 01:16:27;;;;;;;;;3.00;3.00;;;;;5.18;84.49;98219.03;4957473;28;102673;-70
2023/01/13 01:18:55;;;;;;;;;4.50;3.50;;;;;5.17;84.69;98228.13;4962267;28;102518;-71
2023/01/13 01:21:24;;;;;;;;;3.00;1.00;;;;;5.18;84.89;98213.69;4960814;28;102073;-70
2023/01/13 01:23:51;;;;;;;;;5.50;3.00;;;;;5.13;84.89;98205.38;4964218;28;104315;-70
2023/01/13 01:26:24;;;;;;;;;4.25;3.00;;;;;5.20;84.88;98218.88;4964780;28;102483;-71
2023/01/13 01:28:52;;;;;;;;;4.00;3.00;;;;;5.19;84.56;98212.69;4959052;28;102322;-71
2023/01/13 01:31:30;;;;;;;;;3.50;3.00;;;;;5.18;85.00;98213.69;4957263;28;102075;-70
2023/01/13 01:33:58;;;;;;;;;3.25;2.00;;;;;5.10;84.88;98194.97;4968094;28;104198;-70
2023/01/13 01:36:30;;;;;;;;;4.00;2.00;;;;;5.17;85.29;98205.84;4968942;28;106274;-71
2023/01/13 01:38:57;;;;;;;;;2.00;1.50;;;;;5.17;85.20;98205.84;4977937;27;102128;-71
2023/01/13 01:41:27;;;;;;;;;3.00;2.00;;;;;5.19;85.16;98201.13;4964796;28;102305;-70
2023/01/13 01:44:05;;;;;;;;;3.50;3.00;;;;;5.18;85.52;98194.13;4954457;28;103999;-71
2023/01/13 01:46:43;;;;;;;;;2.00;2.00;;;;;5.21;85.31;98186.53;4962120;27;102267;-70
2023/01/13 01:49:23;;;;;;;;;5.50;3.50;;;;;5.22;85.12;98182.03;4963224;28;102470;-71
2023/01/13 01:52:27;;;;;;;;;5.75;5.00;;;;;5.24;85.40;98183.50;4973084;28;102652;-70
2023/01/13 01:54:54;;;;;;;;;7.00;4.00;;;;;5.26;85.21;98177.97;4954480;28;108755;-71
2023/01/13 01:57:27;;;;;;;;;3.00;3.00;;;;;5.25;85.09;98177.13;4957978;28;102154;-71
2023/01/13 01:59:59;;;;;;;;;3.50;2.75;;;;;5.22;84.84;98180.16;4962085;28;102149;-71
2023/01/13 02:02:29;;;;;;;;;3.00;3.00;;;;;5.15;84.74;98168.47;4958075;28;104517;-70
2023/01/13 02:04:58;;;;;;;;;1.25;1.00;;;;;5.16;84.92;98170.16;4962345;28;104052;-70
2023/01/13 02:07:32;;;;;;;;;5.00;1.50;;;;;5.12;85.19;98163.50;4963411;28;102241;-70
2023/01/13 02:10:14;;;;;;;;;2.00;1.25;;;;;5.08;85.37;98159.50;4965723;28;102154;-71
2023/01/13 02:13:06;;;;;;;;;1.00;1.00;;;;;5.06;85.62;98163.34;4962904;28;107470;-70
2023/01/13 02:15:59;;;;;;;;;2.00;2.00;;;;;5.06;85.79;98163.34;4970446;27;107535;-70
2023/01/13 02:18:53;;;;;;;;;0.50;0.50;;;;;5.05;85.35;98161.69;4964222;28;101866;-70
2023/01/13 02:22:02;;;;;;;;;0.00;0.00;;;;;5.04;85.39;98165.38;4956822;28;102163;-70
2023/01/13 02:25:12;;;;;;;;;2.25;1.75;;;;;5.00;85.75;98156.84;4959518;28;102615;-72
2023/01/13 02:28:12;;;;;;;;;1.00;1.00;;;;;4.93;85.61;98155.91;4957572;28;107796;-71
2023/01/13 02:33:49;;;;;;;;;1.75;1.25;;;;;4.75;86.24;98142.78;4961865;28;102041;-70
2023/01/13 02:36:30;;;;;;;;;2.00;1.00;;;;;4.72;86.24;98145.81;4964946;28;101989;-70
2023/01/13 02:39:02;;;;;;;;;1.25;1.00;;;;;4.68;86.59;98140.97;4950032;28;103479;-70
2023/01/13 02:44:50;;;;;;;;;2.00;1.00;;;;;4.58;87.48;98135.00;4956750;28;102099;-70
2023/01/13 02:47:27;;;;;;;;;1.50;1.50;;;;;4.53;87.35;98126.66;4964457;27;102313;-70
2023/01/13 02:50:10;;;;;;;;;1.00;1.00;;;;;4.52;87.33;98124.97;4964715;28;104413;-70
2023/01/13 02:52:42;;;;;;;;;1.75;1.75;;;;;4.51;87.43;98134.84;4952148;28;102172;-71
2023/01/13 02:55:17;;;;;;;;;4.25;2.00;;;;;4.48;87.71;98117.31;4978115;28;102039;-70
2023/01/13 02:57:45;;;;;;;;;2.50;2.50;;;;;4.46;88.08;98113.97;4959690;28;102205;-70
2023/01/13 03:00:15;;;;;;;;;2.00;2.00;;;;;4.49;87.95;98116.31;4966370;28;104003;-70
2023/01/13 03:02:42;;;;;;;;;2.25;1.00;;;;;4.42;88.37;98099.25;4969170;27;102190;-70
2023/01/13 03:05:14;;;;;;;;;1.50;1.50;;;;;4.56;88.06;98115.59;4967016;28;102252;-70
2023/01/13 03:08:08;;;;;;;;;1.75;1.75;;;;;4.62;88.02;98115.72;4967119;28;103197;-70
2023/01/13 03:10:50;;;;;;;;;3.25;3.00;;;;;4.68;88.01;98114.22;4953365;28;108715;-69
2023/01/13 03:13:29;;;;;;;;;2.00;2.00;;;;;4.78;87.66;98109.44;4961051;28;102110;-71
2023/01/13 03:16:15;;;;;;;;;6.00;6.00;;;;;4.89;87.41;98114.41;4961966;28;102591;-70
2023/01/13 03:18:54;;;;;;;;;6.00;4.00;;;;;4.98;87.28;98105.31;4964432;28;102117;-70
2023/01/13 03:21:33;;;;;;;;;4.50;2.50;;;;;5.08;86.60;98105.06;4960127;28;108848;-70
2023/01/13 03:24:35;;;;;;;;;2.50;1.50;;;;;5.16;86.07;98105.84;4957018;28;101995;-70
2023/01/13 03:27:24;;;;;;;;;2.00;2.00;;;;;5.24;85.83;98100.41;4939764;28;102099;-71
2023/01/13 03:29:57;;;;;;;;;2.75;2.00;;;;;5.35;85.23;98108.03;4960930;28;102403;-71
2023/01/13 03:32:37;;;;;;;;;2.50;2.50;;;;;5.47;84.72;98104.91;4960320;28;104182;-70
2023/01/13 03:35:17;;;;;;;;;3.50;3.00;;;;;5.54;84.21;98090.59;4966977;28;102383;-71
2023/01/13 03:37:51;;;;;;;;;5.25;4.25;;;;;5.68;83.78;98102.38;4956610;28;101911;-71
2023/01/13 03:40:25;;;;;;;;;2.00;2.00;;;;;5.68;83.23;98086.28;4965139;28;102504;-70
2023/01/13 03:45:55;;;;;;;;;3.25;3.00;;;;;5.97;81.62;98094.41;4964234;28;102344;-71
2023/01/13 03:48:26;;;;;;;;;11.00;6.00;;;;;6.04;81.35;98092.63;4971162;28;102354;-71
2023/01/13 03:50:58;;;;;;;;;8.00;5.00;;;;;6.09;81.39;98095.59;4980667;27;102150;-70
2023/01/13 03:53:45;;;;;;;;;3.00;3.00;;;;;6.15;80.77;98097.56;4957504;27;103690;-70
2023/01/13 03:56:37;;;;;;;;;3.00;2.75;;;;;6.20;80.87;98103.19;4963629;27;102365;-71
2023/01/13 03:59:10;;;;;;;;;6.25;6.00;;;;;6.24;80.22;98098.28;4950701;28;102158;-71
2023/01/13 04:02:00;;;;;;;;;4.00;3.00;;;;;6.25;80.76;98092.75;4965049;28;103784;-71
2023/01/13 04:04:38;;;;;;;;;7.50;6.25;;;;;6.26;80.35;98086.34;4964697;28;104024;-71
2023/01/13 04:07:23;;;;;;;;;8.75;8.00;;;;;6.28;80.25;98096.91;4954054;28;102176;-71
2023/01/13 04:09:55;;;;;;;;;7.25;5.00;;;;;6.27;80.32;98096.06;4957896;28;102167;-71
2023/01/13 04:15:21;;;;;;;;;4.75;4.75;;;;;6.25;79.99;98098.13;4965208;27;108919;-71
2023/01/13 04:17:49;;;;;;;;;4.00;3.75;;;;;6.25;79.67;98102.66;4965015;27;101956;-71
2023/01/13 04:20:16;;;;;;;;;8.25;7.50;;;;;6.24;79.90;98096.44;4966393;28;102133;-71
2023/01/13 04:22:43;;;;;;;;;6.25;6.00;;;;;6.26;80.26;98105.13;4977892;28;102617;-70
2023/01/13 04:25:11;;;;;;;;;8.25;8.25;;;;;6.26;80.60;98097.06;4955847;28;105617;-70
2023/01/13 04:27:37;;;;;;;;;12.00;8.50;;;;;6.30;80.24;98096.72;4967694;28;102351;-70
2023/01/13 04:30:05;;;;;;;;;10.50;6.50;;;;;6.25;79.81;98082.00;4967746;27;102182;-71
2023/01/13 04:32:32;;;;;;;;;12.25;9.00;;;;;6.33;79.84;98090.97;4956185;28;102401;-70
2023/01/13 04:34:59;;;;;;;;;8.50;7.50;;;;;6.37;79.75;98097.63;4939106;28;104150;-71
2023/01/13 04:37:26;;;;;;;;;9.00;7.75;;;;;6.39;79.98;98100.97;4973233;27;102208;-71
2023/01/13 04:39:53;;;;;;;;;11.25;8.75;;;;;6.41;80.01;98093.53;4960024;28;102206;-71
2023/01/13 04:42:20;;;;;;;;;12.25;8.50;;;;;6.43;80.18;98096.88;4974063;27;102439;-71
2023/01/13 04:44:47;;;;;;;;;11.75;7.50;;;;;6.44;80.01;98109.31;4958815;28;103950;-70
2023/01/13 04:47:14;;;;;;;;;7.50;6.00;;;;;6.38;80.49;98083.19;4970332;28;102262;-71
2023/01/13 04:49:41;;;;;;;;;13.25;8.00;;;;;6.47;80.24;98095.50;4960836;28;102835;-71
2023/01/13 04:52:08;;;;;;;;;9.25;9.00;;;;;6.49;80.09;98106.84;4964430;28;102142;-71
2023/01/13 04:54:35;;;;;;;;;8.25;6.50;;;;;6.49;80.20;98102.31;4965691;28;108156;-71
2023/01/13 04:57:02;;;;;;;;;6.00;2.50;;;;;6.42;80.39;98092.53;4954804;27;102318;-71
2023/01/13 04:59:29;;;;;;;;;10.00;7.00;;;;;6.48;80.03;98095.31;4963167;28;102365;-72
2023/01/13 05:01:56;;;;;;;;;9.00;6.25;;;;;6.49;80.18;98091.59;4954659;28;102026;-71
2023/01/13 05:04:23;;;;;;;;;3.75;3.75;;;;;6.50;80.57;98082.50;4975348;28;104023;-71
2023/01/13 05:06:50;;;;;;;;;6.25;6.00;;;;;6.48;80.09;98086.41;4976132;28;103057;-72
2023/01/13 05:09:17;;;;;;;;;4.00;4.00;;;;;6.51;79.72;98094.09;4968692;28;102254;-70
2023/01/13 05:17:21;;;;;;;;;4.25;3.00;;;;;6.45;80.31;98089.47;4964576;28;102474;-71
2023/01/13 05:19:48;;;;;;;;;6.25;4.00;;;;;6.46;80.05;98091.13;4956485;28;102541;-71
2023/01/13 05:27:47;;;;;;;;;2.50;1.50;;;;;6.47;80.07;98099.00;4957490;28;102918;-71
2023/01/13 05:30:14;;;;;;;;;4.00;2.50;;;;;6.47;80.22;98092.81;4956326;28;102192;-71
2023/01/13 05:32:41;;;;;;;;;4.00;4.00;;;;;6.43;80.59;98097.72;4959385;28;102592;-71
2023/01/13 05:35:08;;;;;;;;;7.00;4.50;;;;;6.43;80.43;98096.88;4965820;28;109363;-71
2023/01/13 05:37:35;;;;;;;;;1.00;1.00;;;;;6.41;80.89;98096.22;4963681;28;102203;-71
2023/01/13 05:43:20;;;;;;;;;7.50;6.50;;;;;6.43;80.18;98118.38;4958282;28;102280;-71
2023/01/13 05:46:02;;;;;;;;;3.00;3.00;;;;;6.48;80.07;98100.69;4953420;28;108750;-71
2023/01/13 05:48:38;;;;;;;;;9.00;4.00;;;;;6.51;80.27;98107.53;4957402;28;102267;-71
2023/01/13 05:51:08;;;;;;;;;9.00;6.00;;;;;6.53;79.70;98106.28;4961473;28;104464;-71
2023/01/13 05:53:35;;;;;;;;;6.75;5.25;;;;;6.54;78.98;98099.91;4965929;28;102358;-71
2023/01/13 05:56:03;;;;;;;;;7.00;5.50;;;;;6.58;79.41;98100.38;4966044;28;103230;-72
2023/01/13 05:58:30;;;;;;;;;6.00;4.25;;;;;6.56;79.03;98097.06;4951358;28;102202;-72
2023/01/13 06:01:08;;;;;;;;;6.00;4.00;;;;;6.60;79.32;98101.03;4957853;28;102448;-73
2023/01/13 06:03:36;;;;;;;;;6.75;6.75;;;;;6.61;79.01;98105.38;4963485;28;102650;-72
2023/01/13 06:06:03;;;;;;;;;4.75;3.75;;;;;6.61;78.88;98105.38;4952731;28;104141;-72
2023/01/13 06:08:31;;;;;;;;;5.50;4.00;;;;;6.61;79.28;98106.22;4947558;28;102025;-73
2023/01/13 06:10:58;;;;;;;;;7.50;6.00;;;;;6.60;79.26;98103.72;4951241;28;102480;-72
2023/01/13 06:13:26;;;;;;;;;5.25;2.00;;;;;6.61;79.43;98100.00;4956886;28;102351;-73
2023/01/13 06:15:57;;;;;;;;;3.25;3.00;;;;;6.60;78.88;98099.16;4947235;28;103985;-73
2023/01/13 06:18:25;;;;;;;;;3.00;2.25;;;;;6.63;78.72;98104.16;4964942;28;102290;-73
2023/01/13 06:20:52;;;;;;;;;3.50;3.50;;;;;6.62;78.40;98107.03;4961743;28;102214;-73
2023/01/13 06:23:19;;;;;;;;;3.50;3.00;;;;;6.55;78.90;98095.38;4957399;28;103134;-73
2023/01/13 06:25:57;;;;;;;;;6.25;2.50;;;;;6.61;78.44;98100.00;4964950;27;104245;-73
2023/01/13 06:28:24;;;;;;;;;3.00;3.00;;;;;6.60;78.22;98111.75;4972575;28;102340;-73
2023/01/13 06:30:56;;;;;;;;;7.00;5.25;;;;;6.63;78.56;98108.69;4970566;28;102036;-72
2023/01/13 06:33:31;;;;;;;;;7.00;6.00;;;;;6.66;78.23;98114.50;4949618;28;101993;-72
2023/01/13 06:36:03;;;;;;;;;3.00;3.00;;;;;6.68;78.08;98108.97;4961821;28;103986;-73
2023/01/13 06:38:36;;;;;;;;;2.00;2.00;;;;;6.68;78.19;98117.03;4972576;28;102259;-72
2023/01/13 06:41:05;;;;;;;;;1.50;1.00;;;;;6.70;78.03;98107.78;4943001;28;102399;-73
2023/01/13 06:43:33;;;;;;;;;3.75;3.00;;;;;6.71;78.38;98106.72;4956198;28;102855;-73
2023/01/13 06:46:01;;;;;;;;;7.50;6.00;;;;;6.72;78.16;98116.47;4962059;28;103958;-72
2023/01/13 06:48:32;;;;;;;;;9.50;7.25;;;;;6.71;77.95;98103.19;4952879;28;103749;-73
2023/01/13 06:51:00;;;;;;;;;9.50;7.50;;;;;6.72;78.18;98118.31;4956831;28;102350;-73
2023/01/13 06:53:27;;;;;;;;;14.00;7.50;;;;;6.71;78.07;98111.25;4982079;27;102283;-73
2023/01/13 06:55:54;;;;;;;;;8.25;7.25;;;;;6.71;78.24;98100.53;4963203;28;103956;-73
2023/01/13 06:58:21;;;;;;;;;11.00;7.50;;;;;6.70;78.33;98109.63;4960771;28;102713;-73
2023/01/13 07:00:50;;;;;;;;;12.00;6.75;;;;;6.69;78.25;98111.47;4956917;28;102491;-73
2023/01/13 07:03:18;;;;;;;;;8.75;8.00;;;;;6.51;78.01;98077.97;4970931;27;102314;-73
2023/01/13 07:05:52;;;;;;;;;8.50;7.00;;;;;6.68;77.91;98111.66;4967990;28;104048;-73
2023/01/13 07:08:19;;;;;;;;;4.00;4.00;;;;;6.69;77.81;98113.31;4981691;27;102128;-73
2023/01/13 07:10:46;;;;;;;;;3.75;3.25;;;;;6.69;77.66;98113.31;4975035;27;102489;-73
2023/01/13 07:16:04;;;;;;;;;7.00;6.00;;;;;6.67;77.95;98105.44;4956330;27;104003;-73
2023/01/13 07:18:33;;;;;;;;;2.00;2.00;;;;;6.67;77.69;98104.59;4961239;28;101974;-73
2023/01/13 07:21:02;;;;;;;;;4.25;3.75;;;;;6.68;78.19;98106.28;4959244;28;102913;-73
2023/01/13 07:23:32;;;;;;;;;2.75;2.50;;;;;6.61;77.89;98100.84;4958688;28;102225;-73
2023/01/13 07:25:59;;;;;;;;;3.00;3.00;;;;;6.57;77.77;98098.72;4946033;28;103943;-73
2023/01/13 07:28:28;;;;;;;;;3.25;3.25;;;;;6.64;77.73;98110.38;4967481;28;102373;-72
2023/01/13 07:30:55;;;;;;;;;4.50;4.50;;;;;6.61;78.10;98106.22;4962612;27;102058;-73
2023/01/13 07:33:22;;;;;;;;;6.00;3.75;;;;;6.41;77.57;98082.81;4952326;27;102076;-73
2023/01/13 07:36:01;;;;;;;;;4.00;3.00;;;;;6.60;77.68;98103.72;4964305;28;103974;-72
2023/01/13 07:38:29;;;;;;;;;3.25;3.00;;;;;6.60;77.85;98109.09;4976019;28;102551;-72
2023/01/13 07:40:56;;;;;;;;;5.00;4.00;;;;;6.60;77.75;98107.22;4964171;27;102222;-74
2023/01/13 07:43:31;;;;;;;;;6.75;6.00;;;;;6.60;77.73;98101.03;4952787;27;105391;-73
2023/01/13 07:46:01;;;;;;;;;7.00;4.00;;;;;6.63;77.43;98101.47;4972097;27;104458;-72
2023/01/13 07:48:30;;;;;;;;;3.75;3.75;;;;;6.62;77.72;98093.59;4973963;28;102221;-74
2023/01/13 07:51:07;;;;;;;;;4.00;3.50;;;;;6.69;77.48;98102.56;4956047;28;101971;-71
2023/01/13 07:53:35;;;;;;;;;5.50;5.50;;;;;6.69;77.10;98099.91;4952082;28;102789;-72
2023/01/13 07:56:05;;;;;;;;;3.50;3.25;;;;;6.75;77.30;98106.38;4972824;27;103978;-72
2023/01/13 07:58:33;;;;;;;;;2.25;2.25;;;;;6.79;77.39;98111.19;4977673;27;102228;-72
2023/01/13 08:01:09;;;;;;;;;6.50;3.75;;;;;6.83;76.66;98109.78;4966863;28;103522;-72
2023/01/13 08:03:36;;;;;;;;;3.00;2.25;;;;;6.85;76.42;98102.34;4967860;27;102435;-73
2023/01/13 08:06:05;;;;;;;;;3.25;2.50;;;;;6.91;76.20;98108.81;4964181;28;104008;-72
2023/01/13 08:08:32;;;;;;;;;6.00;4.50;;;;;6.96;nan;98109.91;4949899;28;102284;-71
2023/01/13 08:11:00;;;;;;;;;2.75;1.25;;;;;7.02;75.97;98111.03;4960724;28;102184;-72
2023/01/13 08:13:28;;;;;;;;;4.00;4.00;;;;;7.07;75.69;98105.88;4958198;28;102096;-72
2023/01/13 08:16:04;;;;;;;;;3.50;3.50;;;;;7.09;75.95;98104.69;4952197;28;103763;-72
2023/01/13 08:18:31;;;;;;;;;5.00;4.00;;;;;7.18;75.96;98103.53;4947644;28;102201;-72
2023/01/13 08:21:05;;;;;;;;;5.50;3.75;;;;;7.24;75.28;98111.88;4940105;28;102263;-72
2023/01/13 08:23:32;;;;;;;;;3.50;3.50;;;;;7.29;75.07;98112.97;4962587;28;102395;-73
2023/01/13 08:26:04;;;;;;;;;3.25;3.00;;;;;7.34;75.20;98113.19;4966574;27;104034;-73
2023/01/13 08:28:31;;;;;;;;;7.50;4.00;;;;;7.36;74.03;98118.38;4954217;28;102177;-73
2023/01/13 08:31:01;;;;;;;;;6.25;5.50;;;;;7.31;74.23;98108.19;4964058;28;102374;-73
2023/01/13 08:33:28;;;;;;;;;6.00;4.50;;;;;7.45;74.27;98119.91;4968722;28;102256;-73
2023/01/13 08:35:56;;;;;;;;;2.00;2.00;;;;;7.51;73.24;98121.84;4969085;27;104053;-72
2023/01/13 08:38:23;;;;;;;;;6.00;5.00;;;;;7.51;74.19;98116.47;4954559;28;107833;-73
2023/01/13 08:40:51;;;;;;;;;5.25;5.25;;;;;7.42;73.75;98098.78;4960382;28;102378;-73
2023/01/13 08:43:18;;;;;;;;;6.25;4.50;;;;;7.42;74.06;98083.50;4968636;28;103055;-71
2023/01/13 08:45:45;;;;;;;;;5.00;4.00;;;;;7.55;72.70;98104.28;4963942;28;104181;-72
2023/01/13 08:48:12;;;;;;;;;7.00;6.00;;;;;7.67;71.66;98116.19;4958705;28;102164;-74
2023/01/13 08:50:39;;;;;;;;;9.50;8.00;;;;;7.67;71.97;98118.03;4959944;28;102284;-71
2023/01/13 08:53:06;;;;;;;;;8.00;8.00;;;;;7.71;72.03;98117.44;4961288;28;102171;-71
2023/01/13 08:55:33;;;;;;;;;6.75;6.75;;;;;7.73;71.18;98118.09;4965592;28;104002;-73
2023/01/13 08:58:00;;;;;;;;;10.00;8.25;;;;;7.77;71.39;98134.69;4953067;27;102282;-72
2023/01/13 09:00:41;;;;;;;;;11.25;7.00;;;;;7.84;71.83;98132.88;4954305;28;102384;-72
2023/01/13 09:03:08;;;;;;;;;8.25;7.50;;;;;7.88;71.65;98129.59;4958314;28;102336;-72
2023/01/13 09:05:35;;;;;;;;;6.00;4.00;;;;;7.96;71.40;98134.84;4966888;28;104019;-73
2023/01/13 09:08:02;;;;;;;;;6.00;6.00;;;;;8.00;71.13;98125.34;4964341;28;102870;-72
2023/01/13 09:10:30;;;;;;;;;6.25;6.25;;;;;8.06;70.95;98124.53;4955978;28;102135;-73
2023/01/13 09:13:12;;;;;;;;;4.00;4.00;;;;;8.12;69.50;98125.63;4956446;27;102306;-73
2023/01/13 09:15:41;;;;;;;;;8.25;6.00;;;;;8.17;71.10;98117.78;4969896;28;105937;-72
2023/01/13 09:18:08;;;;;;;;;8.00;6.00;;;;;8.20;70.46;98120.06;4961484;27;102415;-72
2023/01/13 09:20:35;;;;;;;;;5.50;4.75;;;;;8.22;70.05;98120.72;4967446;28;102116;-72
2023/01/13 09:23:03;;;;;;;;;5.00;5.00;;;;;8.28;70.10;98119.09;4964689;28;102507;-71
2023/01/13 09:25:35;;;;;;;;;7.00;7.00;;;;;8.26;69.97;98113.06;4965914;28;103977;-72
2023/01/13 09:28:03;;;;;;;;;7.25;6.50;;;;;8.23;70.06;98119.69;4955309;28;102056;-72
2023/01/13 09:30:30;;;;;;;;;4.75;4.00;;;;;8.23;69.22;98102.72;4966557;28;102063;-72
2023/01/13 09:35:44;;;;;;;;;6.00;6.00;;;;;8.24;69.38;98107.06;4957307;28;108823;-72
2023/01/13 09:38:12;;;;;;;;;6.50;5.00;;;;;8.36;70.14;98108.19;4972969;28;102260;-72
2023/01/13 09:40:42;;;;;;;;;7.00;6.00;;;;;8.44;70.11;98102.63;4959340;28;102241;-72
2023/01/13 09:43:54;;;;;;;;;6.25;6.00;;;;;8.47;68.92;98099.53;4971528;27;101984;-72
2023/01/13 09:46:42;;;;;;;;;5.75;4.75;;;;;8.43;69.88;98100.97;4953324;28;108445;-73
2023/01/13 09:49:25;;;;;;;;;5.25;5.25;;;;;8.46;69.18;98081.72;4961669;28;102311;-73
2023/01/13 09:52:20;;;;;;;;;4.00;4.00;;;;;8.56;69.22;98089.41;4968989;28;102249;-72
2023/01/13 09:54:54;;;;;;;;;7.75;6.50;;;;;8.56;69.65;98078.63;4970284;28;102245;-73
2023/01/13 09:57:21;;;;;;;;;7.75;7.00;;;;;8.67;68.39;98088.84;4962719;28;104019;-73
2023/01/13 09:59:49;;;;;;;;;6.25;5.75;;;;;8.67;68.23;98078.91;4972877;28;102290;-72
2023/01/13 10:02:43;;;;;;;;;7.25;7.00;;;;;8.72;68.01;98084.53;4964783;28;102303;-72
2023/01/13 10:05:25;;;;;;;;;4.00;4.00;;;;;8.74;68.00;98079.75;4955827;28;102649;-72
2023/01/13 10:07:58;;;;;;;;;5.50;4.00;;;;;8.79;67.42;98074.59;4955257;28;108811;-72
2023/01/13 10:10:40;;;;;;;;;4.00;3.75;;;;;8.82;68.11;98076.06;4953176;28;102468;-71
2023/01/13 10:13:15;;;;;;;;;5.25;4.25;;;;;8.88;67.00;98067.16;4958695;28;102052;-74
2023/01/13 10:15:52;;;;;;;;;6.50;5.50;;;;;8.91;67.11;98064.91;4962604;28;102033;-71
2023/01/13 10:18:31;;;;;;;;;5.50;4.00;;;;;9.06;68.42;98056.63;4960770;28;108751;-72
2023/01/13 10:21:18;;;;;;;;;5.50;3.50;;;;;9.19;66.02;98066.59;4954356;28;102383;-72
2023/01/13 10:24:22;;;;;;;;;5.00;4.00;;;;;9.31;65.44;98067.66;4952499;28;102130;-72
2023/01/13 10:27:22;;;;;;;;;4.00;4.00;;;;;9.35;65.24;98055.41;4953518;28;102252;-73
2023/01/13 10:29:48;;;;;;;;;5.50;3.50;;;;;9.37;65.82;98056.84;4947789;28;108508;-73
2023/01/13 10:32:15;;;;;;;;;4.50;4.50;;;;;9.33;65.21;98063.72;4964028;28;102445;-72
2023/01/13 10:34:50;;;;;;;;;4.75;4.00;;;;;9.35;65.38;98053.56;4964178;28;102074;-72
2023/01/13 10:37:24;;;;;;;;;7.00;4.50;;;;;9.38;65.50;98061.22;4967295;27;102434;-73
2023/01/13 10:39:59;;;;;;;;;4.00;3.75;;;;;9.35;65.36;98056.25;4957316;28;103764;-73
2023/01/13 10:42:26;;;;;;;;;4.25;3.00;;;;;9.46;65.32;98057.47;4947278;28;102476;-72
2023/01/13 10:44:56;;;;;;;;;4.00;3.00;;;;;9.46;65.32;98041.28;4958193;28;102089;-73
2023/01/13 10:47:28;;;;;;;;;7.25;5.00;;;;;9.49;65.15;98046.28;4968049;27;102141;-73
2023/01/13 10:50:01;;;;;;;;;4.00;4.00;;;;;9.49;63.75;98046.28;4970743;28;104013;-72
2023/01/13 10:52:32;;;;;;;;;4.00;3.00;;;;;9.56;64.53;98054.38;4968949;28;102397;-72
2023/01/13 10:54:59;;;;;;;;;6.50;4.00;;;;;9.58;64.11;98039.66;4958592;28;102367;-73
2023/01/13 10:57:35;;;;;;;;;4.00;3.00;;;;;9.60;63.68;98029.47;4967521;27;102494;-73
2023/01/13 11:00:04;;;;;;;;;4.00;3.25;;;;;9.60;63.38;98024.06;4971556;28;104147;-72
2023/01/13 11:02:34;;;;;;;;;3.00;3.00;;;;;9.68;63.48;98034.63;4967744;28;102209;-73
2023/01/13 11:05:17;;;;;;;;;2.75;2.50;;;;;9.64;63.26;98036.09;4972781;28;102397;-72
2023/01/13 11:07:51;;;;;;;;;3.50;3.50;;;;;9.64;63.12;98032.56;4963260;27;101961;-73
2023/01/13 11:10:21;;;;;;;;;3.00;3.00;;;;;9.64;64.00;98033.41;4966702;28;108669;-72
2023/01/13 11:13:04;;;;;;;;;2.75;2.75;;;;;9.65;63.49;98032.38;4966373;27;102465;-73
2023/01/13 11:15:43;;;;;;;;;5.00;4.00;;;;;9.58;62.90;98020.75;4943006;28;102253;-73
2023/01/13 11:18:50;;;;;;;;;3.75;3.00;;;;;9.59;64.45;98027.00;4953973;28;101975;-71
2023/01/13 11:21:26;;;;;;;;;3.50;3.00;;;;;9.57;64.16;98011.00;4958293;28;109553;-72
2023/01/13 11:24:13;;;;;;;;;4.75;4.50;;;;;9.57;63.58;98007.47;4966045;28;102246;-72
2023/01/13 11:26:52;;;;;;;;;6.75;4.75;;;;;9.49;63.49;98013.91;4953559;28;102273;-71
2023/01/13 11:29:25;;;;;;;;;4.50;3.00;;;;;9.53;64.62;98015.16;4965713;28;102478;-72
2023/01/13 11:32:02;;;;;;;;;5.00;3.50;;;;;9.48;64.46;98014.94;4972786;28;103998;-72
2023/01/13 11:34:34;;;;;;;;;4.00;3.25;;;;;9.42;63.96;98013.06;4958483;28;102334;-72
2023/01/13 11:37:08;;;;;;;;;5.25;3.75;;;;;9.39;63.99;98002.69;4967270;27;102198;-73
2023/01/13 11:39:43;;;;;;;;;4.00;4.00;;;;;9.40;64.65;98017.84;4973281;28;102121;-72
2023/01/13 11:42:44;;;;;;;;;4.75;4.00;;;;;9.35;65.19;98012.25;4957364;28;108666;-72
2023/01/13 11:45:20;;;;;;;;;6.25;3.25;;;;;9.34;65.03;97999.78;4951687;28;102171;-72
2023/01/13 11:47:50;;;;;;;;;4.25;3.75;;;;;9.27;64.85;98004.38;4962234;28;102027;-73
2023/01/13 11:50:26;;;;;;;;;5.25;4.00;;;;;9.25;64.67;98009.97;4959821;28;103302;-72
2023/01/13 11:53:14;;;;;;;;;7.00;5.25;;;;;9.25;64.14;98006.44;4966318;27;103647;-72
2023/01/13 11:55:53;;;;;;;;;6.50;5.00;;;;;9.26;64.43;98005.41;4952830;28;103125;-72
2023/01/13 11:58:43;;;;;;;;;7.00;5.25;;;;;9.24;64.72;98008.28;4965485;28;104355;-72
2023/01/13 12:01:54;;;;;;;;;4.25;4.00;;;;;9.35;65.24;97993.38;4955204;28;102343;-72
2023/01/13 12:04:32;;;;;;;;;4.50;4.50;;;;;9.42;66.13;97991.47;4951771;28;108884;-72
2023/01/13 12:07:13;;;;;;;;;5.25;4.75;;;;;9.40;65.38;97993.56;4959354;28;102459;-72
2023/01/13 12:10:00;;;;;;;;;8.25;8.00;;;;;9.36;65.33;97987.78;4949021;28;102558;-72
2023/01/13 12:12:55;;;;;;;;;7.00;5.25;;;;;9.35;65.35;97993.38;4957180;28;102540;-72
2023/01/13 12:15:52;;;;;;;;;4.00;4.00;;;;;9.39;65.59;97992.75;4952215;28;108473;-72
2023/01/13 12:18:40;;;;;;;;;4.75;4.75;;;;;9.38;66.22;97987.53;4969450;27;103138;-72
2023/01/13 12:21:32;;;;;;;;;4.75;4.00;;;;;9.41;65.38;97979.06;4955365;28;102242;-72
2023/01/13 12:24:05;;;;;;;;;3.00;3.00;;;;;9.37;65.37;97983.19;4964294;27;102382;-72
2023/01/13 12:26:36;;;;;;;;;3.25;3.00;;;;;9.40;65.58;97993.56;4966484;28;103667;-73
2023/01/13 12:29:17;;;;;;;;;4.00;4.00;;;;;9.40;65.32;97994.41;4968477;27;102166;-72
2023/01/13 12:31:47;;;;;;;;;8.00;7.50;;;;;9.30;65.60;97998.56;4964291;28;102624;-72
2023/01/13 12:34:23;;;;;;;;;10.00;8.75;;;;;9.23;65.95;98006.63;4970387;28;102293;-72
2023/01/13 12:37:05;;;;;;;;;7.00;6.00;;;;;9.19;65.63;98007.25;4951831;28;108968;-72